Huvudsida
METAR-TAF:

METAR-TAF

Flygplatser :

Jyväskylä flygplats

Jyväskylä, Finland

latitud: 62-24N, longitud: 025-41E, höjd: 141 m

Aktuellt väderrapport

Denna rapport gjordes för 33 minuter sedan, klockan 12:20 UTC
Vind 13 kt från sydväst, varierande mellan syd och väst/sydväst
Temperatur 23°C
Fuktighet 41%
Tryck 1011 hPa
Sikt 10 km eller mer
Inga moln under 1 500 m eller inga cumulonimbus

METAR: EFJY 181220Z AUTO 23013KT 170V250 CAVOK 23/09 Q1011

Tid: 15:53 (12:53 UTC)

Väderprognos

Denna rapport gjordes för 1 timme och 23 minuter sedan, klockan 11:30 UTC
Prognos gäller från 18 kl. 12 UTC till 19 kl. 12 UTC
Vind 12 kt från syd/sydväst
Sikt 10 km eller mer
Inga moln under 1 500 m eller inga cumulonimbus
Temporärt
från 19 kl. 00 UTC till 19 kl. 06 UTC
Sikt: 6000 m
Brutna moln på en höjd av 800 ft
Spridda moln på en höjd av 3000 ft, Högtornande cumulus.
regn

TAF: EFJY 181130Z 1812/1912 21012KT CAVOK TEMPO 1900/1906 6000 RA BKN008 SCT030TCU

Aktuella väderrapporter och prognoser från 4000 flygplatser (METAR- och TAF-rapporter).

De tillgängliga stationerna syns som gula och röda prickar på kartan.

För musen över prickarna för att se namnen på stationerna.

Klicka sedan för att få väderrapporter och prognoser.

För att ändra kartan: Klicka på de gröna knapparna med ett svart kors på för att zooma in; den gröna knappen med ett streck på för att zooma ut; eller på de gröna pilarna för angränsande kartor.


METAR-TAF: